Madison, Wisconsin
Current Conditions -  °F | °C
As of 5:53 PM on Sunday 23 Nov 2014 (Local Time) from KMSN Reporting Station
Light Rain Light Rain  
Wind Chill:   Ceiling: 500
Heat Index:   Visibility: 4mi
Dew Point:   Wind: 6mph
Humidity: 96%   Direction: 140°SE
Pressure: 29.36"   Gusts: NA
Location:  43.07°N, 89.39°W
Report Text: KMSN 232353Z 14005KT 4SM -RA BR OVC005 09/08 A2936 RMK AO2 SLP944 P0004 60037 T00890083 10094 20083 58027
Loading
Personal Weather Stations






























Interactive Weather Map New forecast layout! Learn more

10-Day Weather Forecast

Advertisements
Track Severe Weather on mobile